Data for 10/05/2006

Time Sea-Level Adjusted Pressure Absolute Pressure Temperature Relative Humidity Dew Point   
(mb) (inHg) (mb) (inHg) (C) (F) (%) (C) (F)
00:05 1023 30.21 852 25.16 9.2 48.5 83 6.4 43.6
00:10 1023 30.21 852 25.16 8.8 47.8 85 6.3 43.3
00:15 1023 30.21 852 25.16 8.6 47.5 85 6.2 43.2
00:20 1023 30.21 852 25.16 8.7 47.7 84 6.2 43.2
00:25 1022 30.18 852 25.16 8.4 47.2 86 6.3 43.3
00:30 1022 30.18 852 25.16 8.4 47.1 86 6.3 43.3
00:35 1022 30.18 852 25.16 8.8 47.8 83 6.1 43
00:40 1022 30.18 852 25.16 8.9 48.1 83 6.2 43.2
00:45 1022 30.18 852 25.16 8.6 47.4 84 6.1 42.9
00:50 1022 30.18 852 25.16 8 46.3 86 5.8 42.5
00:55 1022 30.18 852 25.16 7.3 45.2 88 5.5 42
01:00 1022 30.18 852 25.16 7.2 45 89 5.5 41.9
01:05 1022 30.18 852 25.16 7.3 45.2 89 5.6 42
01:10 1022 30.18 852 25.16 7.5 45.5 88 5.6 42.2
01:15 1022 30.18 851 25.13 7.7 45.8 88 5.7 42.3
01:20 1022 30.18 851 25.13 7.7 45.9 87 5.8 42.4
01:25 1022 30.18 851 25.13 7.7 45.8 88 5.7 42.3
01:30 1022 30.18 851 25.13 7.6 45.7 88 5.7 42.3
01:35 1022 30.18 851 25.13 7.5 45.5 88 5.7 42.3
01:40 1022 30.18 851 25.13 7.5 45.5 89 5.8 42.4
01:45 1022 30.18 851 25.13 7.6 45.7 88 5.8 42.4
01:50 1022 30.18 851 25.13 7.7 45.9 88 5.9 42.5
01:55 1022 30.18 851 25.13 7.7 45.8 87 5.7 42.3
02:00 1022 30.18 851 25.13 7.7 45.8 88 5.7 42.3
02:05 1022 30.18 851 25.13 7.7 45.9 87 5.8 42.4
02:10 1022 30.18 851 25.13 7.7 45.9 87 5.7 42.3
02:15 1022 30.18 851 25.13 7.7 45.8 87 5.6 42.1
02:20 1022 30.18 851 25.13 7.7 45.8 87 5.6 42.1
02:25 1022 30.18 851 25.13 7.7 45.8 87 5.6 42.1
02:30 1022 30.18 851 25.13 7.6 45.7 86 5.5 41.9
02:35 1022 30.18 851 25.13 7.6 45.6 86 5.4 41.7
02:40 1022 30.18 851 25.13 7.5 45.5 86 5.4 41.7
02:45 1022 30.18 851 25.13 7.6 45.6 86 5.4 41.8
02:50 1022 30.18 851 25.13 7.6 45.7 87 5.5 42
02:55 1022 30.18 851 25.13 7.7 45.8 86 5.4 41.8
03:00 1022 30.18 851 25.13 7.7 45.9 86 5.5 41.8
03:05 1022 30.18 851 25.13 7.8 46 85 5.4 41.7
03:10 1022 30.18 851 25.13 7.7 45.8 86 5.4 41.7
03:15 1022 30.18 851 25.13 7.5 45.4 86 5.3 41.5
03:20 1022 30.18 851 25.13 7.4 45.4 86 5.2 41.4
03:25 1022 30.18 851 25.13 7.4 45.2 86 5.2 41.4
03:30 1022 30.18 851 25.13 7.2 45 87 5.2 41.3
03:35 1022 30.18 851 25.13 7.3 45.1 87 5.2 41.4
03:40 1022 30.18 851 25.13 7.4 45.2 86 5.2 41.3
03:45 1022 30.18 851 25.13 7.4 45.3 86 5.2 41.4
03:50 1021 30.15 851 25.13 7.4 45.3 86 5.2 41.3
03:55 1021 30.15 851 25.13 7.5 45.5 85 5.2 41.4
04:00 1021 30.15 851 25.13 7.4 45.4 85 5.2 41.3
04:05 1021 30.15 851 25.13 7.4 45.2 86 5.1 41.2
04:10 1021 30.15 850 25.1 7.4 45.3 85 5.1 41.1
04:15 1021 30.15 850 25.1 7.4 45.4 85 5.1 41.2
04:20 1021 30.15 851 25.13 7.3 45.1 85 5 41
04:25 1021 30.15 851 25.13 7.1 44.8 86 4.9 40.8
04:30 1021 30.15 851 25.13 7.2 44.9 85 4.8 40.7
04:35 1021 30.15 851 25.13 7.3 45.1 85 4.8 40.7
04:40 1021 30.15 851 25.13 7.3 45.1 85 4.9 40.8
04:45 1021 30.15 851 25.13 7.2 45 85 4.9 40.7
04:50 1021 30.15 851 25.13 7.6 45.6 82 4.8 40.6
04:55 1021 30.15 851 25.13 8 46.5 81 5 40.9
05:00 1021 30.15 851 25.13 7.8 46.1 82 5 41.1
05:05 1022 30.18 851 25.13 7.6 45.6 84 5 40.9
05:10 1022 30.18 851 25.13 7.5 45.5 83 4.9 40.8
05:15 1022 30.18 851 25.13 7.4 45.3 84 4.8 40.6
05:20 1022 30.18 851 25.13 7.2 44.9 84 4.6 40.3
05:25 1022 30.18 851 25.13 7 44.6 84 4.5 40.1
05:30 1021 30.15 851 25.13 7 44.6 86 4.8 40.6
05:35 1021 30.15 851 25.13 7.1 44.7 86 4.9 40.8
05:40 1021 30.15 851 25.13 6.9 44.4 87 4.9 40.8
05:45 1021 30.15 850 25.1 6.7 44.1 88 4.8 40.6
05:50 1021 30.15 850 25.1 6.8 44.2 87 4.7 40.5
05:55 1021 30.15 850 25.1 6.9 44.5 86 4.8 40.6
06:00 1021 30.15 850 25.1 7.1 44.7 85 4.8 40.6
06:05 1021 30.15 850 25.1 7 44.6 85 4.7 40.5
06:10 1021 30.15 850 25.1 7 44.5 86 4.7 40.5
06:15 1021 30.15 850 25.1 7.1 44.8 85 4.7 40.5
06:20 1021 30.15 850 25.1 7.3 45.1 84 4.7 40.5
06:25 1021 30.15 850 25.1 7.5 45.6 83 4.8 40.6
06:30 1021 30.15 850 25.1 7.4 45.3 84 4.9 40.8
06:35 1021 30.15 850 25.1 6.9 44.4 86 4.7 40.4
06:40 1021 30.15 850 25.1 7 44.5 85 4.5 40.2
06:45 1021 30.15 850 25.1 7.1 44.7 84 4.6 40.3
06:50 1021 30.15 850 25.1 6.5 43.8 87 4.5 40
06:55 1021 30.15 850 25.1 6.3 43.4 88 4.5 40
07:00 1021 30.15 850 25.1 6.5 43.7 87 4.5 40
07:05 1021 30.15 850 25.1 6.6 43.8 87 4.5 40.1
07:10 1021 30.15 851 25.13 6.9 44.5 84 4.4 39.9
07:15 1021 30.15 850 25.1 6.8 44.3 85 4.4 40
07:20 1021 30.15 850 25.1 6.7 44 85 4.4 39.9
07:25 1021 30.15 850 25.1 6.7 44.1 85 4.4 39.9
07:30 1021 30.15 850 25.1 7.1 44.7 84 4.5 40.1
07:35 1021 30.15 851 25.13 7.4 45.3 82 4.5 40.2
07:40 1022 30.18 851 25.13 7.4 45.3 83 4.7 40.5
07:45 1021 30.15 851 25.13 7.2 44.9 84 4.6 40.4
07:50 1021 30.15 851 25.13 7.1 44.7 82 4.2 39.6
07:55 1021 30.15 851 25.13 6.4 43.5 86 4.3 39.7
08:00 1021 30.15 850 25.1 5.6 42.1 89 3.9 39.1
08:05 1021 30.15 850 25.1 5.5 42 89 3.9 39.1
08:10 1021 30.15 850 25.1 5.9 42.7 87 4 39.1
08:15 1021 30.15 850 25.1 6.3 43.4 86 4.1 39.4
08:20 1021 30.15 850 25.1 6.9 44.5 83 4.3 39.8
08:25 1021 30.15 850 25.1 7.2 45 83 4.6 40.3
08:30 1021 30.15 850 25.1 7.3 45.2 83 4.7 40.4
08:35 1021 30.15 850 25.1 7.6 45.7 82 4.8 40.6
08:40 1021 30.15 850 25.1 8.2 46.7 79 4.8 40.6
08:45 1021 30.15 850 25.1 8.9 48.1 76 4.9 40.9
08:50 1021 30.15 850 25.1 9.6 49.2 75 5.3 41.5
08:55 1021 30.15 850 25.1 10.2 50.3 71 5.3 41.5
09:00 1021 30.15 850 25.1 10.9 51.5 69 5.5 41.9
09:05 1021 30.15 850 25.1 11 51.9 70 5.8 42.5
09:10 1021 30.15 850 25.1 10.9 51.6 71 5.8 42.5
09:15 1021 30.15 850 25.1 10.7 51.3 71 5.8 42.4
09:20 1021 30.15 850 25.1 11.3 52.3 70 6 42.8
09:25 1021 30.15 850 25.1 12 53.5 66 5.9 42.6
09:30 1021 30.15 850 25.1 12 53.7 66 6 42.8
09:35 1021 30.15 850 25.1 12.3 54.2 66 6.2 43.1
09:40 1021 30.15 850 25.1 12.6 54.7 64 6.1 42.9
09:45 1021 30.15 850 25.1 13.1 55.5 62 6.1 43
09:50 1021 30.15 850 25.1 12.4 54.2 67 6.4 43.5
09:55 1021 30.15 850 25.1 12.2 54 68 6.5 43.6
10:00 1021 30.15 850 25.1 12.3 54.1 68 6.5 43.8
10:05 1021 30.15 850 25.1 13.2 55.8 64 6.6 43.9
10:10 1021 30.15 850 25.1 13.7 56.6 63 6.8 44.3
10:15 1021 30.15 850 25.1 13.5 56.3 64 6.9 44.4
10:20 1021 30.15 850 25.1 13.1 55.6 64 6.4 43.6
10:25 1021 30.15 850 25.1 13.5 56.2 65 7 44.5
10:30 1021 30.15 850 25.1 14 57.2 61 6.7 44
10:35 1021 30.15 850 25.1 14.5 58.2 60 7 44.6
10:40 1021 30.15 850 25.1 14.7 58.4 61 7.3 45.2
10:45 1021 30.15 850 25.1 14.8 58.6 59 6.9 44.3
10:50 1021 30.15 850 25.1 14 57.3 63 7.2 44.9
10:55 1021 30.15 850 25.1 14.3 57.7 60 6.7 44.1
11:00 1021 30.15 850 25.1 14.9 58.8 59 7.1 44.7
11:05 1021 30.15 850 25.1 15.3 59.5 58 7.2 44.9
11:10 1021 30.15 850 25.1 15.3 59.6 59 7.4 45.4
11:15 1021 30.15 850 25.1 15.4 59.6 59 7.5 45.5
11:20 1020 30.12 850 25.1 14.9 58.8 60 7.2 45
11:25 1020 30.12 850 25.1 15.6 60 57 7.2 45
11:30 1020 30.12 850 25.1 16 60.7 56 7.4 45.3
11:35 1020 30.12 849 25.07 15.8 60.4 58 7.7 45.9
11:40 1020 30.12 849 25.07 16 60.8 57 7.7 45.8
11:45 1020 30.12 849 25.07 14.9 58.7 63 8 46.4
11:50 1020 30.12 849 25.07 15.1 59.2 59 7.3 45.1
11:55 1020 30.12 849 25.07 14.7 58.5 64 8 46.5
12:00 1020 30.12 849 25.07 14.9 58.8 61 7.6 45.7
12:05 1020 30.12 849 25.07 15.1 59.2 60 7.5 45.6
12:10 1020 30.12 849 25.07 16.2 61.1 57 7.7 45.8
12:15 1020 30.12 849 25.07 17.4 63.2 54 8 46.4
12:20 1020 30.12 849 25.07 17.8 64.1 53 8.2 46.7
12:25 1019 30.09 849 25.07 17.8 64 52 8 46.4
12:30 1019 30.09 849 25.07 17.4 63.3 54 8.1 46.5
12:35 1019 30.09 848 25.04 17.8 64 53 8.2 46.8
12:40 1019 30.09 848 25.04 17.9 64.3 53 8.2 46.8
12:45 1019 30.09 848 25.04 18.1 64.6 53 8.5 47.2
12:50 1019 30.09 848 25.04 17.4 63.2 54 8 46.4
12:55 1019 30.09 848 25.04 18.3 65 51 8.2 46.8
13:00 1019 30.09 848 25.04 19.4 66.9 48 8.2 46.7
13:05 1019 30.09 848 25.04 19.8 67.6 47 8.3 47
13:10 1019 30.09 848 25.04 19 66.1 49 8.1 46.5
13:15 1019 30.09 848 25.04 18.9 66 49 7.9 46.3
13:20 1018 30.06 848 25.04 19.5 67.1 51 9.1 48.4
13:25 1018 30.06 848 25.04 19.5 67.1 48 8.4 47.1
13:30 1018 30.06 848 25.04 20.1 68.2 47 8.6 47.5
13:35 1018 30.06 847 25.01 19.1 66.4 48 8.1 46.5
13:40 1018 30.06 847 25.01 19.5 67.2 47 8.2 46.8
13:45 1018 30.06 847 25.01 20.2 68.4 46 8.3 46.9
13:50 1018 30.06 847 25.01 20.8 69.5 44 8.4 47
13:55 1018 30.06 847 25.01 21 69.8 43 8.3 46.9
14:00 1018 30.06 847 25.01 21.2 70.2 42 8 46.4
14:05 1018 30.06 847 25.01 21.7 71 40 7.8 46
14:10 1018 30.06 847 25.01 21.5 70.6 43 8.5 47.4
14:15 1017 30.03 847 25.01 20.6 69 45 8.3 47
14:20 1017 30.03 847 25.01 20 68 46 8.1 46.5
14:25 1017 30.03 847 25.01 20.5 68.9 42 7.4 45.3
14:30 1017 30.03 847 25.01 21 69.8 42 7.8 46
14:35 1017 30.03 846 24.98 21.2 70.1 40 7.3 45.1
14:40 1017 30.03 846 24.98 21.6 70.9 42 8.3 47
14:45 1017 30.03 846 24.98 21.4 70.6 41 7.9 46.2
14:50 1017 30.03 846 24.98 21.7 71 39 7.4 45.4
14:55 1017 30.03 846 24.98 22.1 71.8 38 7.5 45.4
15:00 1017 30.03 846 24.98 22 71.5 41 8.3 47
15:05 1017 30.03 846 24.98 22.1 71.8 38 7.3 45.1
15:10 1017 30.03 846 24.98 22.7 72.8 40 8.5 47.4
15:15 1017 30.03 846 24.98 22.3 72.2 40 8.3 47
15:20 1017 30.03 846 24.98 22 71.6 41 8.2 46.7
15:25 1017 30.03 846 24.98 21.4 70.5 42 8 46.4
15:30 1017 30.03 846 24.98 21.1 70 41 7.7 45.8
15:35 1017 30.03 846 24.98 21.3 70.4 41 7.6 45.6
15:40 1017 30.03 846 24.98 22.2 72 37 7.2 44.9
15:45 1016 30 846 24.98 23.1 73.6 36 7.2 45
15:50 1016 30 846 24.98 23.6 74.4 34 6.8 44.3
15:55 1016 30 846 24.98 24.2 75.6 33 7.2 45
16:00 1016 30 846 24.98 24 75.3 34 7.4 45.4
16:05 1016 30 846 24.98 23.8 74.9 34 7.1 44.8
16:10 1016 30 846 24.98 23.4 74 33 6.5 43.8
16:15 1016 30 845 24.95 23.3 73.9 38 8.2 46.7
16:20 1016 30 845 24.95 22.9 73.3 38 8.1 46.6
16:25 1016 30 845 24.95 22.3 72.1 33 5.4 41.6
16:30 1016 30 845 24.95 22 71.5 33 5.1 41.2
16:35 1016 30 845 24.95 21.9 71.4 33 5.2 41.4
16:40 1016 30 845 24.95 21.8 71.2 33 5.2 41.3
16:45 1016 30 845 24.95 21.4 70.6 34 5 41.1
16:50 1016 30 845 24.95 21.3 70.3 32 4.1 39.3
16:55 1016 30 845 24.95 21.2 70.2 33 4.4 39.9
17:00 1016 30 845 24.95 21.2 70.1 33 4.3 39.8
17:05 1016 30 845 24.95 21 69.8 34 4.5 40.2
17:10 1016 30 845 24.95 21 69.7 33 4.3 39.7
17:15 1016 30 845 24.95 20.9 69.7 32 3.9 39
17:20 1016 30 845 24.95 21 69.7 34 4.7 40.4
17:25 1016 30 845 24.95 20.8 69.4 34 4.4 40
17:30 1016 30 845 24.95 20.8 69.5 35 4.9 40.9
17:35 1016 30 845 24.95 21.1 70 34 4.8 40.6
17:40 1016 30 845 24.95 20.9 69.7 35 4.9 40.8
17:45 1016 30 845 24.95 20.7 69.2 34 4.6 40.3
17:50 1016 30 845 24.95 20.5 69 37 5.5 41.9
17:55 1016 30 845 24.95 20.3 68.6 36 4.9 40.9
18:00 1016 30 845 24.95 20.2 68.4 38 5.6 42
18:05 1016 30 845 24.95 20.1 68.2 38 5.4 41.7
18:10 1016 30 845 24.95 20.1 68.3 36 4.6 40.3
18:15 1016 30 845 24.95 20.2 68.3 36 4.6 40.3
18:20 1016 30 845 24.95 20.1 68.1 39 5.8 42.4
18:25 1016 30 845 24.95 19.7 67.5 39 5.4 41.7
18:30 1016 30 845 24.95 19.5 67.2 39 5.5 41.9
18:35 1016 30 845 24.95 19.5 67.1 39 5.3 41.6
18:40 1016 30 845 24.95 19.4 67 39 5.1 41.3
18:45 1016 30 845 24.95 19.4 67 40 5.7 42.3
18:50 1016 30 845 24.95 19.2 66.6 40 5.5 41.8
18:55 1016 30 845 24.95 19.3 66.7 40 5.6 42.2
19:00 1016 30 845 24.95 19.4 66.9 40 5.7 42.3
19:05 1016 30 845 24.95 19.6 67.2 36 4.4 39.9
19:10 1016 30 845 24.95 19.7 67.5 43 7.1 44.7
19:15 1016 30 845 24.95 19.6 67.3 38 4.9 40.9
19:20 1016 30 845 24.95 19.3 66.7 39 5.1 41.3
19:25 1016 30 845 24.95 19.2 66.6 40 5.4 41.8
19:30 1016 30 845 24.95 19 66.1 39 4.8 40.6
19:35 1016 30 845 24.95 18.9 65.9 40 5.1 41.1
19:40 1016 30 845 24.95 18.6 65.5 39 4.7 40.4
19:45 1016 30 845 24.95 18.4 65 44 5.9 42.6
19:50 1016 30 845 24.95 18.1 64.6 45 6.1 43.1
19:55 1016 30 845 24.95 18.6 65.4 40 4.8 40.7
20:00 1016 30 845 24.95 18.9 66 39 4.7 40.4
20:05 1016 30 845 24.95 18.7 65.7 40 5 41
20:10 1016 30 845 24.95 19 66.3 38 4.4 39.9
20:15 1016 30 845 24.95 19.1 66.4 41 5.7 42.2
20:20 1016 30 845 24.95 18.7 65.7 39 4.7 40.4
20:25 1015 29.97 845 24.95 19.1 66.4 35 3.5 38.3
20:30 1015 29.97 845 24.95 19.1 66.4 41 5.7 42.2
20:35 1015 29.97 844 24.92 18 64.3 43 5.4 41.7
20:40 1015 29.97 845 24.95 18 64.3 44 5.5 41.9
20:45 1016 30 845 24.95 18.1 64.5 46 6.4 43.5
20:50 1016 30 845 24.95 18.3 64.9 39 4.4 39.9
20:55 1016 30 845 24.95 18.2 64.8 47 6.8 44.2
21:00 1015 29.97 845 24.95 17.6 63.6 43 5 41.1
21:05 1016 30 845 24.95 17.7 63.9 44 5.5 41.8
21:10 1016 30 845 24.95 18 64.5 43 5.5 41.9
21:15 1016 30 845 24.95 18 64.5 42 5.1 41.2
21:20 1016 30 845 24.95 18 64.4 42 4.9 40.8
21:25 1015 29.97 845 24.95 18.5 65.3 39 4.3 39.8
21:30 1015 29.97 845 24.95 18.9 66.1 38 4.6 40.3
21:35 1015 29.97 845 24.95 18.8 65.9 39 4.9 40.8
21:40 1015 29.97 845 24.95 18.9 66 40 5 41
21:45 1015 29.97 845 24.95 18.6 65.5 42 5.5 41.9
21:50 1015 29.97 844 24.92 18.3 65 42 5.4 41.8
21:55 1015 29.97 844 24.92 18.4 65.1 42 5.2 41.4
22:00 1015 29.97 845 24.95 18.5 65.2 43 5.9 42.6
22:05 1015 29.97 845 24.95 18.3 64.9 44 6 42.8
22:10 1015 29.97 845 24.95 18.2 64.7 44 6 42.8
22:15 1016 30 845 24.95 17.7 63.9 44 5.5 41.9
22:20 1016 30 845 24.95 17.9 64.2 42 5 41
22:25 1016 30 845 24.95 17.8 64.1 45 5.8 42.4
22:30 1016 30 845 24.95 17.6 63.6 46 6 42.7
22:35 1016 30 845 24.95 17.6 63.7 43 5.1 41.1
22:40 1016 30 845 24.95 17.8 64 43 5.2 41.3
22:45 1016 30 845 24.95 17.9 64.1 43 5.1 41.2
22:50 1016 30 845 24.95 17.9 64.2 43 5.4 41.7
22:55 1015 29.97 845 24.95 17.7 63.8 45 5.6 42.1
23:00 1015 29.97 845 24.95 17.5 63.6 45 5.5 41.8
23:05 1015 29.97 845 24.95 17.6 63.6 45 5.5 41.9
23:10 1015 29.97 845 24.95 17.5 63.6 45 5.7 42.2
23:15 1015 29.97 845 24.95 17.6 63.8 45 5.7 42.3
23:20 1015 29.97 845 24.95 17.4 63.4 47 6.1 42.9
23:25 1015 29.97 845 24.95 17.2 62.9 47 5.7 42.3
23:30 1015 29.97 845 24.95 17.6 63.6 43 5 41.1
23:35 1015 29.97 845 24.95 18.1 64.6 47 6.8 44.2
23:40 1015 29.97 845 24.95 17.2 63 48 6.3 43.3
23:45 1015 29.97 844 24.92 16.9 62.3 49 6.3 43.4
23:50 1015 29.97 845 24.95 16.3 61.3 52 6.4 43.6
23:55 1015 29.97 845 24.95 16 60.8 52 6.2 43.2
24:00 1015 29.97 844 24.92 15.9 60.5 54 6.6 43.8